createdAt,value
2023-05-08T00:00:27.191Z,100596.00
2023-05-08T00:03:29.997Z,100593.56
2023-05-08T00:06:32.811Z,100595.47
2023-05-08T00:09:36.831Z,100596.69
2023-05-08T00:12:41.096Z,100599.97
2023-05-08T00:15:43.896Z,100596.03
2023-05-08T00:18:46.735Z,100602.66
2023-05-08T00:21:49.453Z,100606.53
2023-05-08T00:24:53.444Z,100616.06
2023-05-08T00:27:56.147Z,100616.34
2023-05-08T00:31:00.976Z,100627.50
2023-05-08T00:34:03.728Z,100627.13
2023-05-08T00:37:07.216Z,100620.38
2023-05-08T00:40:12.948Z,100622.47
2023-05-08T00:43:15.722Z,100623.97
2023-05-08T00:46:18.972Z,100627.13
2023-05-08T00:49:21.929Z,100629.16
2023-05-08T00:52:24.740Z,100632.84
2023-05-08T00:55:28.990Z,100625.91
2023-05-08T00:58:33.569Z,100627.22
2023-05-08T01:01:38.290Z,100615.47
2023-05-08T01:04:44.330Z,100613.84
2023-05-08T01:07:47.314Z,100630.94
2023-05-08T01:11:03.094Z,100625.47
2023-05-08T01:14:13.019Z,100632.84
2023-05-08T01:17:24.113Z,100633.09
2023-05-08T01:20:36.246Z,100612.28
2023-05-08T01:24:07.288Z,100628.72
2023-05-08T01:27:41.711Z,100635.66
2023-05-08T01:31:06.672Z,100635.31
2023-05-08T01:34:15.990Z,100628.44
2023-05-08T01:37:31.158Z,100641.72
2023-05-08T01:40:38.183Z,100637.38
2023-05-08T01:43:49.554Z,100644.50
2023-05-08T01:46:52.753Z,100648.97
2023-05-08T01:50:05.562Z,100651.19
2023-05-08T01:53:13.767Z,100652.59
2023-05-08T01:56:23.461Z,100657.59
2023-05-08T01:59:29.285Z,100656.41
2023-05-08T02:02:33.770Z,100665.63
2023-05-08T02:05:39.037Z,100645.38
2023-05-08T02:08:44.235Z,100672.03
2023-05-08T02:11:48.515Z,100677.75
2023-05-08T02:14:54.812Z,100668.69
2023-05-08T02:17:59.982Z,100669.91
2023-05-08T02:21:07.159Z,100640.78
2023-05-08T02:24:10.993Z,100676.09
2023-05-08T02:27:15.643Z,100679.97
2023-05-08T02:30:18.987Z,100676.84
2023-05-08T02:33:22.403Z,100680.94
2023-05-08T02:36:28.454Z,100685.72
2023-05-08T02:39:32.531Z,100684.84
2023-05-08T02:42:35.546Z,100688.63
2023-05-08T02:45:44.437Z,100694.31
2023-05-08T02:48:55.542Z,100683.50
2023-05-08T02:52:06.833Z,100691.03
2023-05-08T02:55:16.396Z,100688.38
2023-05-08T02:58:25.905Z,100695.75
2023-05-08T03:01:38.132Z,100674.59
2023-05-08T03:04:46.397Z,100696.81
2023-05-08T03:07:55.484Z,100695.03
2023-05-08T03:11:02.716Z,100689.19
2023-05-08T03:14:11.033Z,100698.09
2023-05-08T03:17:18.082Z,100689.13
2023-05-08T03:20:24.818Z,100688.63
2023-05-08T03:23:30.763Z,100687.06
2023-05-08T03:26:34.147Z,100694.75
2023-05-08T03:29:39.855Z,100677.31
2023-05-08T03:32:43.521Z,100696.28
2023-05-08T03:35:47.350Z,100700.53
2023-05-08T03:38:51.547Z,100692.13
2023-05-08T03:41:56.311Z,100695.16
2023-05-08T03:44:59.525Z,100693.72
2023-05-08T03:48:05.283Z,100701.81
2023-05-08T03:51:08.002Z,100701.88
2023-05-08T03:54:12.116Z,100709.09
2023-05-08T03:57:14.923Z,100711.81
2023-05-08T04:00:26.348Z,100700.06
2023-05-08T04:03:42.493Z,100709.44
2023-05-08T04:06:51.195Z,100700.19
2023-05-08T04:10:01.433Z,100708.69
2023-05-08T04:13:09.824Z,100708.94
2023-05-08T04:16:18.477Z,100712.47
2023-05-08T04:19:25.937Z,100701.97
2023-05-08T04:22:30.636Z,100692.19
2023-05-08T04:25:37.933Z,100712.06
2023-05-08T04:28:40.990Z,100719.25
2023-05-08T04:31:44.208Z,100716.31
2023-05-08T04:34:47.111Z,100717.91
2023-05-08T04:37:49.822Z,100730.00
2023-05-08T04:40:53.867Z,100721.75
2023-05-08T04:43:56.681Z,100729.91
2023-05-08T04:46:59.365Z,100726.25
2023-05-08T04:50:03.161Z,100734.34
2023-05-08T04:53:06.153Z,100730.44
2023-05-08T04:56:10.340Z,100733.16
2023-05-08T04:59:15.898Z,100727.06
2023-05-08T05:02:18.860Z,100734.06
2023-05-08T05:05:22.280Z,100733.50
2023-05-08T05:08:24.962Z,100733.97
2023-05-08T05:11:29.452Z,100740.66
2023-05-08T05:14:32.202Z,100733.66
2023-05-08T05:17:35.393Z,100747.88
2023-05-08T05:20:38.347Z,100742.44
2023-05-08T05:23:41.381Z,100752.78
2023-05-08T05:26:46.133Z,100751.91
2023-05-08T05:29:49.121Z,100744.53
2023-05-08T05:32:51.835Z,100755.28
2023-05-08T05:35:54.649Z,100759.84
2023-05-08T05:38:57.444Z,100770.81
2023-05-08T05:42:01.554Z,100772.66
2023-05-08T05:45:04.403Z,100764.09
2023-05-08T05:48:07.420Z,100770.34
2023-05-08T05:51:10.294Z,100784.03
2023-05-08T05:54:14.551Z,100783.22
2023-05-08T05:57:18.577Z,100781.22
2023-05-08T06:00:22.641Z,100782.81
2023-05-08T06:03:25.402Z,100790.34
2023-05-08T06:06:28.640Z,100782.66
2023-05-08T06:09:31.340Z,100792.59
2023-05-08T06:12:35.780Z,100790.19
2023-05-08T06:15:38.461Z,100796.19
2023-05-08T06:18:41.388Z,100799.88
2023-05-08T06:21:44.113Z,100797.56
2023-05-08T06:24:47.136Z,100798.81
2023-05-08T06:27:51.440Z,100807.38
2023-05-08T06:30:54.368Z,100805.28
2023-05-08T06:33:57.209Z,100810.91
2023-05-08T06:37:00.132Z,100812.81
2023-05-08T06:40:14.278Z,100817.09
2023-05-08T06:43:18.334Z,100820.09
2023-05-08T06:46:21.694Z,100816.50
2023-05-08T06:49:24.494Z,100818.19
2023-05-08T06:52:27.117Z,100814.84
2023-05-08T06:55:29.825Z,100812.25
2023-05-08T06:58:33.924Z,100809.16
2023-05-08T07:01:37.500Z,100810.53
2023-05-08T07:04:40.287Z,100808.94
2023-05-08T07:07:43.564Z,100805.06
2023-05-08T07:10:48.467Z,100806.69
2023-05-08T07:13:52.561Z,100805.56
2023-05-08T07:16:55.315Z,100800.31
2023-05-08T07:19:57.974Z,100802.03
2023-05-08T07:23:00.791Z,100805.44
2023-05-08T07:26:04.332Z,100802.03
2023-05-08T07:29:08.575Z,100805.66
2023-05-08T07:32:11.341Z,100804.34
2023-05-08T07:35:15.633Z,100803.00
2023-05-08T07:38:18.616Z,100806.53
2023-05-08T07:41:21.417Z,100802.34
2023-05-08T07:44:25.511Z,100804.13
2023-05-08T07:47:29.162Z,100807.34
2023-05-08T07:50:31.914Z,100800.50
2023-05-08T07:53:34.613Z,100801.94
2023-05-08T07:56:37.407Z,100800.69
2023-05-08T07:59:41.520Z,100798.41
2023-05-08T08:02:45.403Z,100796.72
2023-05-08T08:05:48.305Z,100800.84
2023-05-08T08:08:51.070Z,100795.69
2023-05-08T08:11:55.104Z,100798.19
2023-05-08T08:14:59.339Z,100796.56
2023-05-08T08:18:02.264Z,100790.06
2023-05-08T08:21:08.720Z,100759.69
2023-05-08T08:24:11.774Z,100798.41
2023-05-08T08:27:14.731Z,100803.00
2023-05-08T08:30:19.015Z,100796.38
2023-05-08T08:33:22.274Z,100797.06
2023-05-08T08:36:25.042Z,100795.13
2023-05-08T08:39:28.350Z,100796.13
2023-05-08T08:42:31.610Z,100791.53
2023-05-08T08:45:37.034Z,100796.03
2023-05-08T08:48:45.424Z,100799.38
2023-05-08T08:51:51.910Z,100799.47
2023-05-08T08:54:57.587Z,100792.31
2023-05-08T08:58:14.939Z,100794.47
2023-05-08T09:01:21.166Z,100796.53
2023-05-08T09:04:27.610Z,100791.06
2023-05-08T09:07:31.195Z,100795.59
2023-05-08T09:10:36.040Z,100793.75
2023-05-08T09:13:38.840Z,100806.16
2023-05-08T09:16:43.325Z,100808.38
2023-05-08T09:19:46.264Z,100799.22
2023-05-08T09:22:49.878Z,100808.91
2023-05-08T09:25:52.629Z,100810.81
2023-05-08T09:29:09.537Z,100802.91
2023-05-08T09:32:21.533Z,100807.69
2023-05-08T09:35:37.359Z,100810.13
2023-05-08T09:38:43.672Z,100814.34
2023-05-08T09:41:58.044Z,100818.28
2023-05-08T09:45:00.784Z,100809.00
2023-05-08T09:48:05.434Z,100813.88
2023-05-08T09:51:08.643Z,100812.88
2023-05-08T09:54:19.068Z,100788.72
2023-05-08T09:57:21.754Z,100819.97
2023-05-08T10:00:25.795Z,100819.59
2023-05-08T10:03:47.655Z,100819.72
2023-05-08T10:06:58.762Z,100825.44
2023-05-08T10:10:03.390Z,100830.25
2023-05-08T10:13:07.154Z,100827.34
2023-05-08T10:16:15.129Z,100828.22
2023-05-08T10:19:20.900Z,100828.84
2023-05-08T10:22:26.146Z,100823.66
2023-05-08T10:25:33.158Z,100815.97
2023-05-08T10:28:43.961Z,100822.41
2023-05-08T10:31:47.992Z,100810.97
2023-05-08T10:34:54.726Z,100814.91
2023-05-08T10:37:58.160Z,100807.44
2023-05-08T10:41:02.190Z,100805.25
2023-05-08T10:44:06.441Z,100780.31
2023-05-08T10:47:17.494Z,100804.22
2023-05-08T10:50:35.079Z,100803.75
2023-05-08T10:53:42.040Z,100795.28
2023-05-08T10:56:44.733Z,100788.69
2023-05-08T10:59:48.315Z,100793.28
2023-05-08T11:02:51.242Z,100798.84
2023-05-08T11:05:56.784Z,100798.97
2023-05-08T11:09:00.798Z,100794.66
2023-05-08T11:12:09.301Z,100792.72
2023-05-08T11:15:12.148Z,100797.84
2023-05-08T11:18:18.337Z,100799.16
2023-05-08T11:21:22.700Z,100799.75
2023-05-08T11:24:36.828Z,100801.38
2023-05-08T11:28:04.427Z,100799.06
2023-05-08T11:31:09.016Z,100801.94
2023-05-08T11:34:53.395Z,100803.00
2023-05-08T11:38:19.470Z,100787.41
2023-05-08T11:41:24.343Z,100801.03
2023-05-08T11:44:29.277Z,100793.41
2023-05-08T11:47:37.956Z,100799.84
2023-05-08T11:50:41.233Z,100791.53
2023-05-08T11:53:45.893Z,100784.72
2023-05-08T11:56:49.732Z,100786.19
2023-05-08T11:59:53.141Z,100772.88
2023-05-08T12:02:56.074Z,100775.06
2023-05-08T12:06:00.708Z,100772.97
2023-05-08T12:09:11.701Z,100770.13
2023-05-08T12:12:14.471Z,100768.16
2023-05-08T12:15:17.301Z,100760.69
2023-05-08T12:18:20.730Z,100774.88
2023-05-08T12:21:23.630Z,100769.53
2023-05-08T12:24:27.925Z,100770.09
2023-05-08T12:27:30.913Z,100731.72
2023-05-08T12:30:33.997Z,100766.16
2023-05-08T12:33:38.720Z,100740.47
2023-05-08T12:36:41.540Z,100761.22
2023-05-08T12:39:46.409Z,100770.00
2023-05-08T12:42:50.725Z,100764.63
2023-05-08T12:45:53.498Z,100764.41
2023-05-08T12:49:02.688Z,100771.19
2023-05-08T12:52:07.383Z,100757.50
2023-05-08T12:55:24.213Z,100769.44
2023-05-08T12:58:28.806Z,100776.00
2023-05-08T13:01:31.890Z,100782.38
2023-05-08T13:04:38.510Z,100778.22
2023-05-08T13:07:41.501Z,100784.13
2023-05-08T13:10:47.243Z,100778.06
2023-05-08T13:13:49.887Z,100771.72
2023-05-08T13:16:53.087Z,100770.72
2023-05-08T13:19:55.912Z,100763.91
2023-05-08T13:22:59.073Z,100772.81
2023-05-08T13:26:04.129Z,100769.59
2023-05-08T13:29:07.052Z,100765.00
2023-05-08T13:32:09.895Z,100772.16
2023-05-08T13:35:12.731Z,100775.44
2023-05-08T13:38:15.531Z,100766.13
2023-05-08T13:41:19.812Z,100756.91
2023-05-08T13:44:22.605Z,100754.72
2023-05-08T13:47:25.567Z,100765.69
2023-05-08T13:50:28.475Z,100758.03
2023-05-08T13:53:31.395Z,100754.41
2023-05-08T13:56:35.544Z,100753.19
2023-05-08T13:59:39.137Z,100750.75
2023-05-08T14:02:42.360Z,100751.44
2023-05-08T14:05:45.388Z,100752.31
2023-05-08T14:08:51.013Z,100755.06
2023-05-08T14:11:56.723Z,100739.44
2023-05-08T14:15:01.321Z,100750.06
2023-05-08T14:18:04.922Z,100743.50
2023-05-08T14:21:07.841Z,100743.06
2023-05-08T14:24:10.576Z,100735.84
2023-05-08T14:27:14.626Z,100745.22
2023-05-08T14:30:17.426Z,100737.31
2023-05-08T14:33:20.222Z,100744.28
2023-05-08T14:36:23.040Z,100749.31
2023-05-08T14:39:25.785Z,100740.53
2023-05-08T14:42:29.954Z,100749.06
2023-05-08T14:45:34.486Z,100738.97
2023-05-08T14:48:37.220Z,100746.22
2023-05-08T14:51:39.955Z,100735.25
2023-05-08T14:54:43.349Z,100728.38
2023-05-08T14:57:47.816Z,100718.91
2023-05-08T15:00:50.866Z,100719.56
2023-05-08T15:03:54.124Z,100714.38
2023-05-08T15:06:56.852Z,100693.28
2023-05-08T15:09:59.545Z,100724.47
2023-05-08T15:13:06.381Z,100723.69
2023-05-08T15:16:09.103Z,100712.16
2023-05-08T15:19:11.801Z,100713.72
2023-05-08T15:22:14.797Z,100683.22
2023-05-08T15:25:17.846Z,100701.22
2023-05-08T15:28:21.952Z,100692.84
2023-05-08T15:31:24.656Z,100696.47
2023-05-08T15:34:29.544Z,100692.00
2023-05-08T15:37:36.999Z,100690.25
2023-05-08T15:40:39.925Z,100678.47
2023-05-08T15:43:45.187Z,100695.47
2023-05-08T15:46:48.184Z,100677.28
2023-05-08T15:49:51.183Z,100688.69
2023-05-08T15:52:54.115Z,100677.75
2023-05-08T15:55:57.248Z,100685.78
2023-05-08T15:59:01.500Z,100698.22
2023-05-08T16:02:04.297Z,100682.91
2023-05-08T16:05:07.684Z,100690.63
2023-05-08T16:08:12.813Z,100685.13
2023-05-08T16:11:15.989Z,100694.25
2023-05-08T16:14:21.357Z,100682.63
2023-05-08T16:17:24.124Z,100690.41
2023-05-08T16:20:26.978Z,100687.13
2023-05-08T16:23:29.705Z,100689.78
2023-05-08T16:26:32.418Z,100687.78
2023-05-08T16:29:37.010Z,100692.19
2023-05-08T16:32:40.912Z,100693.84
2023-05-08T16:35:43.822Z,100697.22
2023-05-08T16:38:46.808Z,100700.97
2023-05-08T16:41:49.564Z,100697.03
2023-05-08T16:44:53.661Z,100701.22
2023-05-08T16:47:56.662Z,100692.22
2023-05-08T16:50:59.492Z,100694.19
2023-05-08T16:54:02.315Z,100691.44
2023-05-08T16:57:05.979Z,100689.31
2023-05-08T17:00:11.239Z,100696.81
2023-05-08T17:03:14.033Z,100699.72
2023-05-08T17:06:17.403Z,100705.97
2023-05-08T17:09:20.125Z,100690.38
2023-05-08T17:12:22.950Z,100698.03
2023-05-08T17:15:27.036Z,100693.97
2023-05-08T17:18:29.756Z,100694.94
2023-05-08T17:21:32.478Z,100701.50
2023-05-08T17:24:37.365Z,100699.75
2023-05-08T17:27:40.147Z,100697.88
2023-05-08T17:30:46.340Z,100700.53
2023-05-08T17:33:52.328Z,100693.97
2023-05-08T17:36:55.375Z,100698.13
2023-05-08T17:39:58.248Z,100706.97
2023-05-08T17:43:00.985Z,100707.34
2023-05-08T17:46:05.377Z,100712.47
2023-05-08T17:49:09.026Z,100713.31
2023-05-08T17:52:11.766Z,100698.75
2023-05-08T17:55:14.524Z,100700.91
2023-05-08T17:58:17.234Z,100698.28
2023-05-08T18:01:21.370Z,100694.19
2023-05-08T18:04:24.322Z,100702.03
2023-05-08T18:07:26.989Z,100704.47
2023-05-08T18:10:29.961Z,100705.34
2023-05-08T18:13:33.026Z,100698.88
2023-05-08T18:16:37.628Z,100705.34
2023-05-08T18:19:40.407Z,100713.66
2023-05-08T18:22:43.257Z,100712.56
2023-05-08T18:25:45.968Z,100710.59
2023-05-08T18:28:48.707Z,100711.09
2023-05-08T18:31:52.858Z,100711.22
2023-05-08T18:34:56.827Z,100713.25
2023-05-08T18:37:59.585Z,100710.63
2023-05-08T18:41:03.137Z,100712.38
2023-05-08T18:44:05.916Z,100724.31
2023-05-08T18:47:09.992Z,100721.56
2023-05-08T18:50:12.956Z,100726.25
2023-05-08T18:53:15.896Z,100720.31
2023-05-08T18:56:19.601Z,100715.31
2023-05-08T18:59:22.796Z,100722.16
2023-05-08T19:02:28.097Z,100729.59
2023-05-08T19:05:31.214Z,100730.94
2023-05-08T19:08:33.868Z,100733.03
2023-05-08T19:11:36.728Z,100723.94
2023-05-08T19:14:39.466Z,100719.22
2023-05-08T19:17:44.117Z,100716.72
2023-05-08T19:20:46.811Z,100715.13
2023-05-08T19:23:49.528Z,100725.50
2023-05-08T19:26:52.188Z,100721.28
2023-05-08T19:29:55.261Z,100717.69
2023-05-08T19:32:59.363Z,100715.53
2023-05-08T19:36:02.450Z,100726.44
2023-05-08T19:39:06.554Z,100719.59
2023-05-08T19:42:10.761Z,100718.91
2023-05-08T19:45:17.961Z,100727.91
2023-05-08T19:48:30.918Z,100727.81
2023-05-08T19:51:39.897Z,100727.69
2023-05-08T19:54:50.833Z,100723.22
2023-05-08T19:57:53.943Z,100728.38
2023-05-08T20:00:56.728Z,100730.63
2023-05-08T20:04:01.331Z,100713.25
2023-05-08T20:07:04.314Z,100714.16
2023-05-08T20:10:08.454Z,100719.97
2023-05-08T20:13:11.481Z,100727.50
2023-05-08T20:16:14.418Z,100724.84
2023-05-08T20:19:18.914Z,100720.19
2023-05-08T20:22:21.943Z,100718.22
2023-05-08T20:25:24.953Z,100719.38
2023-05-08T20:28:28.170Z,100720.84
2023-05-08T20:31:31.026Z,100689.44
2023-05-08T20:34:36.291Z,100718.69
2023-05-08T20:37:44.071Z,100707.91
2023-05-08T20:40:46.906Z,100711.34
2023-05-08T20:43:49.647Z,100707.66
2023-05-08T20:46:52.351Z,100712.38
2023-05-08T20:49:56.470Z,100711.34
2023-05-08T20:52:59.145Z,100712.25
2023-05-08T20:56:02.286Z,100713.34
2023-05-08T20:59:04.977Z,100714.28
2023-05-08T21:02:08.168Z,100703.81
2023-05-08T21:05:12.570Z,100704.47
2023-05-08T21:08:15.513Z,100700.59
2023-05-08T21:11:19.983Z,100701.72
2023-05-08T21:14:25.576Z,100701.44
2023-05-08T21:17:28.294Z,100706.81
2023-05-08T21:20:34.774Z,100683.00
2023-05-08T21:23:37.464Z,100701.97
2023-05-08T21:26:40.151Z,100700.88
2023-05-08T21:29:42.857Z,100694.44
2023-05-08T21:32:51.678Z,100701.00
2023-05-08T21:35:55.841Z,100701.00
2023-05-08T21:38:58.600Z,100691.78
2023-05-08T21:42:01.552Z,100690.75
2023-05-08T21:45:04.562Z,100690.81
2023-05-08T21:48:07.692Z,100684.94
2023-05-08T21:51:11.730Z,100689.03
2023-05-08T21:54:14.404Z,100689.25
2023-05-08T21:57:17.189Z,100688.72
2023-05-08T22:00:21.219Z,100689.59
2023-05-08T22:03:24.079Z,100682.66
2023-05-08T22:06:28.210Z,100685.38
2023-05-08T22:09:31.347Z,100682.75
2023-05-08T22:12:34.097Z,100691.56
2023-05-08T22:15:37.012Z,100687.06
2023-05-08T22:18:40.044Z,100682.56
2023-05-08T22:21:44.187Z,100680.81
2023-05-08T22:24:46.918Z,100682.94
2023-05-08T22:27:49.668Z,100685.56
2023-05-08T22:30:52.336Z,100680.09
2023-05-08T22:33:55.027Z,100680.00
2023-05-08T22:36:59.063Z,100676.78
2023-05-08T22:40:02.482Z,100675.03
2023-05-08T22:43:05.480Z,100670.28
2023-05-08T22:46:08.347Z,100664.81
2023-05-08T22:49:11.250Z,100654.84
2023-05-08T22:52:15.418Z,100663.03
2023-05-08T22:55:18.185Z,100662.34
2023-05-08T22:58:20.957Z,100644.72
2023-05-08T23:01:26.170Z,100645.28
2023-05-08T23:04:28.914Z,100629.16
2023-05-08T23:07:33.250Z,100628.19
2023-05-08T23:10:35.980Z,100614.63
2023-05-08T23:13:38.696Z,100620.47
2023-05-08T23:16:41.446Z,100610.50
2023-05-08T23:19:45.324Z,100601.59
2023-05-08T23:22:49.396Z,100596.38
2023-05-08T23:25:52.266Z,100587.72
2023-05-08T23:28:54.948Z,100583.31
2023-05-08T23:31:57.674Z,100586.50
2023-05-08T23:35:00.395Z,100579.66
2023-05-08T23:38:05.156Z,100577.34
2023-05-08T23:41:08.408Z,100587.75
2023-05-08T23:44:11.120Z,100579.19
2023-05-08T23:47:13.820Z,100582.50
2023-05-08T23:50:16.604Z,100585.53
2023-05-08T23:53:20.728Z,100574.88
2023-05-08T23:56:23.516Z,100581.34
2023-05-08T23:59:26.171Z,100581.50
